Terminal Aerodrome Forecast
Issued by NWS

Home | Current Version | Previous Version | Text Only | Print | Product List | Glossary On
Versions: 1 2 3 4 5 6 7 8 9 10 11 12 13 14
000
FTUS42 TJSJ 042332
TAFJSJ
TAF
TJSJ 042332Z 0500/0524 08011KT P6SM SCT022 SCT080
     FM051400 07018KT P6SM FEW025 SCT050
     FM052300 08012KT P6SM FEW025 SCT050=

USA.gov is the U.S. government's official web portal to all federal, state and local government web resources and services.